createdAt,value
2022-12-23T00:01:16.698Z,18.35
2022-12-23T00:04:19.831Z,20.55
2022-12-23T00:07:22.469Z,20.05
2022-12-23T00:10:25.306Z,20.20
2022-12-23T00:13:46.158Z,17.27
2022-12-23T00:16:50.739Z,18.02
2022-12-23T00:19:53.659Z,20.95
2022-12-23T00:23:05.951Z,20.23
2022-12-23T00:26:30.985Z,17.85
2022-12-23T00:29:34.501Z,18.75
2022-12-23T00:32:37.147Z,19.90
2022-12-23T00:35:40.152Z,19.27
2022-12-23T00:39:01.411Z,17.02
2022-12-23T00:42:22.668Z,14.75
2022-12-23T00:45:25.265Z,18.25
2022-12-23T00:48:46.717Z,16.77
2022-12-23T00:51:49.306Z,17.65
2022-12-23T00:54:52.257Z,15.93
2022-12-23T00:57:54.849Z,16.87
2022-12-23T01:01:16.268Z,15.45
2022-12-23T01:04:38.141Z,15.27
2022-12-23T01:07:42.403Z,16.15
2022-12-23T01:10:48.190Z,15.43
2022-12-23T01:13:51.246Z,14.50
2022-12-23T01:16:53.930Z,14.77
2022-12-23T01:19:56.872Z,15.82
2022-12-23T01:22:59.494Z,14.18
2022-12-23T01:26:05.126Z,17.30
2022-12-23T01:29:07.846Z,15.00
2022-12-23T01:32:10.803Z,14.10
2022-12-23T01:35:13.389Z,14.87
2022-12-23T01:38:16.385Z,14.50
2022-12-23T01:41:40.238Z,13.85
2022-12-23T01:45:01.461Z,13.75
2022-12-23T01:48:15.136Z,14.80
2022-12-23T01:51:27.053Z,13.70
2022-12-23T01:54:29.679Z,14.82
2022-12-23T01:57:34.035Z,13.85
2022-12-23T02:01:00.592Z,13.05
2022-12-23T02:04:07.466Z,14.50
2022-12-23T02:07:30.372Z,14.05
2022-12-23T02:10:54.612Z,12.23
2022-12-23T02:14:41.975Z,13.82
2022-12-23T02:18:06.411Z,12.55
2022-12-23T02:21:22.140Z,13.93
2022-12-23T02:24:49.090Z,13.93
2022-12-23T02:28:03.934Z,16.55
2022-12-23T02:31:35.739Z,16.12
2022-12-23T02:35:04.400Z,15.32
2022-12-23T02:38:31.251Z,16.05
2022-12-23T02:41:36.842Z,14.60
2022-12-23T02:44:53.994Z,15.55
2022-12-23T02:48:02.485Z,15.55
2022-12-23T02:51:09.536Z,14.43
2022-12-23T02:54:16.348Z,19.12
2022-12-23T02:57:29.387Z,17.37
2022-12-23T03:00:34.871Z,15.25
2022-12-23T03:03:41.811Z,19.50
2022-12-23T03:06:48.555Z,17.77
2022-12-23T03:10:08.819Z,17.23
2022-12-23T03:13:27.933Z,17.58
2022-12-23T03:16:30.776Z,17.80
2022-12-23T03:19:51.687Z,17.83
2022-12-23T03:23:19.492Z,16.12
2022-12-23T03:26:28.184Z,17.23
2022-12-23T03:30:08.147Z,19.37
2022-12-23T03:33:20.550Z,20.45
2022-12-23T03:36:31.999Z,17.95
2022-12-23T03:39:41.884Z,18.62
2022-12-23T03:42:50.281Z,17.48
2022-12-23T03:45:59.259Z,18.30
2022-12-23T03:49:07.688Z,20.12
2022-12-23T03:52:21.324Z,19.73
2022-12-23T03:55:32.373Z,21.65
2022-12-23T03:58:44.712Z,19.98
2022-12-23T04:02:11.419Z,19.08
2022-12-23T04:05:30.463Z,15.93
2022-12-23T04:08:37.211Z,19.45
2022-12-23T04:11:40.387Z,20.12
2022-12-23T04:14:48.172Z,19.83
2022-12-23T04:17:52.746Z,19.40
2022-12-23T04:20:59.594Z,18.00
2022-12-23T04:24:02.426Z,17.50
2022-12-23T04:27:06.380Z,17.67
2022-12-23T04:30:11.057Z,16.75
2022-12-23T04:33:13.849Z,18.77
2022-12-23T04:36:16.738Z,15.10
2022-12-23T04:39:19.239Z,15.32
2022-12-23T04:42:22.428Z,17.65
2022-12-23T04:45:24.967Z,17.45
2022-12-23T04:48:27.795Z,17.17
2022-12-23T04:51:30.467Z,17.17
2022-12-23T04:54:33.471Z,14.80
2022-12-23T04:57:36.036Z,16.08
2022-12-23T05:00:40.283Z,17.87
2022-12-23T05:03:42.971Z,16.45
2022-12-23T05:06:45.869Z,14.68
2022-12-23T05:09:48.605Z,14.70
2022-12-23T05:12:51.514Z,14.63
2022-12-23T05:15:55.292Z,15.45
2022-12-23T05:18:58.324Z,15.57
2022-12-23T05:22:01.007Z,15.48
2022-12-23T05:25:04.255Z,15.57
2022-12-23T05:28:10.715Z,15.35
2022-12-23T05:31:15.202Z,13.23
2022-12-23T05:34:17.927Z,17.00
2022-12-23T05:37:20.752Z,16.23
2022-12-23T05:40:27.924Z,15.65
2022-12-23T05:43:35.619Z,14.43
2022-12-23T05:46:38.281Z,14.13
2022-12-23T05:49:41.247Z,13.18
2022-12-23T05:52:43.884Z,12.23
2022-12-23T05:55:47.480Z,13.23
2022-12-23T05:58:50.084Z,14.90
2022-12-23T06:01:53.141Z,13.25
2022-12-23T06:04:56.114Z,13.13
2022-12-23T06:07:58.733Z,11.85
2022-12-23T06:11:05.717Z,12.73
2022-12-23T06:14:08.358Z,13.73
2022-12-23T06:17:11.348Z,13.23
2022-12-23T06:20:20.340Z,12.75
2022-12-23T06:23:23.672Z,13.88
2022-12-23T06:26:26.605Z,12.45
2022-12-23T06:29:29.682Z,12.15
2022-12-23T06:32:37.910Z,13.68
2022-12-23T06:35:43.022Z,11.55
2022-12-23T06:38:45.580Z,13.55
2022-12-23T06:41:49.048Z,12.30
2022-12-23T06:44:51.609Z,13.73
2022-12-23T06:47:54.565Z,12.68
2022-12-23T06:50:58.327Z,11.30
2022-12-23T06:54:01.600Z,14.30
2022-12-23T06:57:04.163Z,12.90
2022-12-23T07:00:08.436Z,12.40
2022-12-23T07:03:11.856Z,13.23
2022-12-23T07:06:14.987Z,10.82
2022-12-23T07:09:17.775Z,12.07
2022-12-23T07:12:20.590Z,13.98
2022-12-23T07:15:23.283Z,13.15
2022-12-23T07:18:26.379Z,11.40
2022-12-23T07:21:29.981Z,12.45
2022-12-23T07:24:33.166Z,11.43
2022-12-23T07:27:35.819Z,12.02
2022-12-23T07:30:41.789Z,11.48
2022-12-23T07:33:44.673Z,10.10
2022-12-23T07:36:47.741Z,11.07
2022-12-23T07:39:50.296Z,10.98
2022-12-23T07:42:58.786Z,10.70
2022-12-23T07:46:07.294Z,10.10
2022-12-23T07:49:10.568Z,8.77
2022-12-23T07:52:13.285Z,9.18
2022-12-23T07:55:16.308Z,11.43
2022-12-23T07:58:18.816Z,10.10
2022-12-23T08:01:23.007Z,10.73
2022-12-23T08:04:25.897Z,9.40
2022-12-23T08:07:28.495Z,9.43
2022-12-23T08:10:32.026Z,9.55
2022-12-23T08:13:37.926Z,10.23
2022-12-23T08:16:43.892Z,12.05
2022-12-23T08:19:50.192Z,10.27
2022-12-23T08:22:53.080Z,10.57
2022-12-23T08:26:09.937Z,10.18
2022-12-23T08:29:12.822Z,11.98
2022-12-23T08:32:15.667Z,11.52
2022-12-23T08:35:18.503Z,12.35
2022-12-23T08:38:21.126Z,10.55
2022-12-23T08:41:30.735Z,11.63
2022-12-23T08:44:33.394Z,11.32
2022-12-23T08:47:36.180Z,11.70
2022-12-23T08:50:41.457Z,11.85
2022-12-23T08:53:44.728Z,11.23
2022-12-23T08:56:47.489Z,10.77
2022-12-23T08:59:51.833Z,11.57
2022-12-23T09:02:54.431Z,11.02
2022-12-23T09:05:57.808Z,12.05
2022-12-23T09:09:01.205Z,10.80
2022-12-23T09:12:04.629Z,11.65
2022-12-23T09:15:07.714Z,10.90
2022-12-23T09:18:11.732Z,12.35
2022-12-23T09:21:17.223Z,11.30
2022-12-23T09:24:20.105Z,12.02
2022-12-23T09:27:22.641Z,12.40
2022-12-23T09:30:25.537Z,11.85
2022-12-23T09:33:28.114Z,11.73
2022-12-23T09:36:31.048Z,12.60
2022-12-23T09:39:33.734Z,11.75
2022-12-23T09:42:39.391Z,11.20
2022-12-23T09:45:57.293Z,14.23
2022-12-23T09:49:00.121Z,12.20
2022-12-23T09:52:06.779Z,11.18
2022-12-23T09:55:11.985Z,13.57
2022-12-23T09:58:43.442Z,12.43
2022-12-23T10:01:57.388Z,14.68
2022-12-23T10:05:25.072Z,12.13
2022-12-23T10:08:39.829Z,13.15
2022-12-23T10:11:46.215Z,13.38
2022-12-23T10:14:52.670Z,11.52
2022-12-23T10:18:00.987Z,10.95
2022-12-23T10:21:11.315Z,10.65
2022-12-23T10:24:24.469Z,10.57
2022-12-23T10:27:38.378Z,11.02
2022-12-23T10:31:10.892Z,10.20
2022-12-23T10:34:34.934Z,11.10
2022-12-23T10:37:51.711Z,11.20
2022-12-23T10:44:54.164Z,9.30
2022-12-23T10:48:18.369Z,10.57
2022-12-23T10:51:34.097Z,10.45
2022-12-23T10:54:37.610Z,10.23
2022-12-23T10:57:40.844Z,11.90
2022-12-23T11:00:59.623Z,11.68
2022-12-23T11:04:13.320Z,11.77
2022-12-23T11:07:45.735Z,12.75
2022-12-23T11:10:50.277Z,11.45
2022-12-23T11:13:52.855Z,12.77
2022-12-23T11:16:55.733Z,12.27
2022-12-23T11:20:18.695Z,12.55
2022-12-23T11:23:27.663Z,13.15
2022-12-23T11:26:30.340Z,12.40
2022-12-23T11:29:40.208Z,13.70
2022-12-23T11:32:45.345Z,12.25
2022-12-23T11:35:59.295Z,12.65
2022-12-23T11:39:16.668Z,13.27
2022-12-23T11:42:24.540Z,12.57
2022-12-23T11:45:30.787Z,13.57
2022-12-23T11:48:34.106Z,12.37
2022-12-23T11:51:36.666Z,12.32
2022-12-23T11:54:40.017Z,13.07
2022-12-23T11:57:45.924Z,12.07
2022-12-23T12:01:00.018Z,12.68
2022-12-23T12:04:20.622Z,12.23
2022-12-23T12:07:23.702Z,12.02
2022-12-23T12:10:31.592Z,12.82
2022-12-23T12:13:43.476Z,13.02
2022-12-23T12:16:50.139Z,13.68
2022-12-23T12:19:57.124Z,13.75
2022-12-23T12:23:48.395Z,14.83
2022-12-23T12:26:58.086Z,13.35
2022-12-23T12:30:08.631Z,14.00
2022-12-23T12:33:34.890Z,12.63
2022-12-23T12:36:48.077Z,11.77
2022-12-23T12:39:55.653Z,13.55
2022-12-23T12:43:14.770Z,13.73
2022-12-23T12:46:35.009Z,13.10
2022-12-23T12:49:53.177Z,13.02
2022-12-23T12:53:02.183Z,14.75
2022-12-23T12:56:21.129Z,13.73
2022-12-23T12:59:29.099Z,13.77
2022-12-23T13:03:00.230Z,13.60
2022-12-23T13:06:32.402Z,13.80
2022-12-23T13:09:37.975Z,13.55
2022-12-23T13:12:58.923Z,13.90
2022-12-23T13:16:14.523Z,15.43
2022-12-23T13:19:48.876Z,15.25
2022-12-23T13:23:15.140Z,15.25
2022-12-23T13:26:36.083Z,16.12
2022-12-23T13:30:08.352Z,14.32
2022-12-23T13:33:13.622Z,15.00
2022-12-23T13:36:51.166Z,15.38
2022-12-23T13:39:56.426Z,15.23
2022-12-23T13:43:06.581Z,14.27
2022-12-23T13:46:23.320Z,15.23
2022-12-23T13:49:58.043Z,14.30
2022-12-23T13:53:09.860Z,13.15
2022-12-23T13:56:30.090Z,15.48
2022-12-23T13:59:44.160Z,13.35
2022-12-23T14:02:58.146Z,14.15
2022-12-23T14:06:19.642Z,13.57
2022-12-23T14:09:30.263Z,13.45
2022-12-23T14:12:38.274Z,13.62
2022-12-23T14:16:13.855Z,13.30
2022-12-23T14:19:44.831Z,13.00
2022-12-23T14:22:56.328Z,13.85
2022-12-23T14:26:36.647Z,13.15
2022-12-23T14:30:21.675Z,13.25
2022-12-23T14:33:26.451Z,13.93
2022-12-23T14:36:29.090Z,14.48
2022-12-23T14:39:33.426Z,13.73
2022-12-23T14:42:43.207Z,13.88
2022-12-23T14:45:46.112Z,13.70
2022-12-23T14:48:48.700Z,14.13
2022-12-23T14:51:51.805Z,13.30
2022-12-23T14:55:21.009Z,15.57
2022-12-23T14:58:24.071Z,13.43
2022-12-23T15:01:32.378Z,12.57
2022-12-23T15:04:46.943Z,13.62
2022-12-23T15:07:49.814Z,14.65
2022-12-23T15:10:54.184Z,14.80
2022-12-23T15:14:00.442Z,13.40
2022-12-23T15:17:16.271Z,14.20
2022-12-23T15:20:22.678Z,13.65
2022-12-23T15:23:25.957Z,14.43
2022-12-23T15:26:31.842Z,14.63
2022-12-23T15:29:34.933Z,15.60
2022-12-23T15:32:41.192Z,14.25
2022-12-23T15:35:44.341Z,13.13
2022-12-23T15:38:47.114Z,13.95
2022-12-23T15:41:51.272Z,15.43
2022-12-23T15:44:54.278Z,14.45
2022-12-23T15:47:57.344Z,13.55
2022-12-23T15:51:07.805Z,13.38
2022-12-23T15:54:22.656Z,16.00
2022-12-23T15:57:28.520Z,14.77
2022-12-23T16:00:49.672Z,15.07
2022-12-23T16:03:58.710Z,14.07
2022-12-23T16:07:02.733Z,13.07
2022-12-23T16:10:20.794Z,13.23
2022-12-23T16:13:23.594Z,13.70
2022-12-23T16:16:40.077Z,14.55
2022-12-23T16:19:54.991Z,12.63
2022-12-23T16:23:02.249Z,13.35
2022-12-23T16:26:08.093Z,13.23
2022-12-23T16:29:11.717Z,15.27
2022-12-23T16:32:19.246Z,12.48
2022-12-23T16:35:36.210Z,13.00
2022-12-23T16:38:38.815Z,13.70
2022-12-23T16:41:41.817Z,14.93
2022-12-23T16:44:44.469Z,12.93
2022-12-23T16:47:47.522Z,12.70
2022-12-23T16:50:56.782Z,16.45
2022-12-23T16:54:00.871Z,13.27
2022-12-23T16:57:03.691Z,13.95
2022-12-23T17:00:13.281Z,14.43
2022-12-23T17:03:18.045Z,15.88
2022-12-23T17:06:21.652Z,13.48
2022-12-23T17:09:24.304Z,14.50
2022-12-23T17:12:27.314Z,14.80
2022-12-23T17:15:29.898Z,14.50
2022-12-23T17:18:34.938Z,14.25
2022-12-23T17:21:39.596Z,13.85
2022-12-23T17:24:42.509Z,13.73
2022-12-23T17:27:45.239Z,12.37
2022-12-23T17:30:53.465Z,11.80
2022-12-23T17:33:56.149Z,12.37
2022-12-23T17:37:00.709Z,11.75
2022-12-23T17:40:03.852Z,13.30
2022-12-23T17:43:14.951Z,13.38
2022-12-23T17:46:17.819Z,12.97
2022-12-23T17:49:20.817Z,12.98
2022-12-23T17:52:24.064Z,13.18
2022-12-23T17:55:27.273Z,13.40
2022-12-23T17:58:29.872Z,13.25
2022-12-23T18:01:32.856Z,14.38
2022-12-23T18:04:35.774Z,14.15
2022-12-23T18:07:38.324Z,14.57
2022-12-23T18:10:41.720Z,12.00
2022-12-23T18:13:44.611Z,13.98
2022-12-23T18:16:47.518Z,14.93
2022-12-23T18:19:50.204Z,13.80
2022-12-23T18:22:54.773Z,14.25
2022-12-23T18:25:58.067Z,13.32
2022-12-23T18:29:01.117Z,14.80
2022-12-23T18:32:04.388Z,12.63
2022-12-23T18:35:25.254Z,13.75
2022-12-23T18:38:27.965Z,13.52
2022-12-23T18:41:30.928Z,13.95
2022-12-23T18:44:33.541Z,12.98
2022-12-23T18:47:36.426Z,14.75
2022-12-23T18:50:43.445Z,12.85
2022-12-23T18:53:47.933Z,12.95
2022-12-23T18:56:50.559Z,15.00
2022-12-23T18:59:53.454Z,15.18
2022-12-23T19:02:56.924Z,15.70
2022-12-23T19:06:06.739Z,13.73
2022-12-23T19:09:16.945Z,13.10
2022-12-23T19:12:20.379Z,13.38
2022-12-23T19:15:23.452Z,13.45
2022-12-23T19:18:26.514Z,12.77
2022-12-23T19:21:29.299Z,12.65
2022-12-23T19:24:32.410Z,13.75
2022-12-23T19:27:35.276Z,15.30
2022-12-23T19:30:41.974Z,13.60
2022-12-23T19:33:46.745Z,15.80
2022-12-23T19:36:49.716Z,13.00
2022-12-23T19:39:52.520Z,16.67
2022-12-23T19:42:55.718Z,13.48
2022-12-23T19:46:00.207Z,13.90
2022-12-23T19:49:03.215Z,13.75
2022-12-23T19:52:06.115Z,13.23
2022-12-23T19:55:10.275Z,13.35
2022-12-23T19:58:13.055Z,14.32
2022-12-23T20:01:21.099Z,15.98
2022-12-23T20:04:24.980Z,15.15
2022-12-23T20:07:27.582Z,13.73
2022-12-23T20:10:36.536Z,15.35
2022-12-23T20:13:39.182Z,14.95
2022-12-23T20:16:42.790Z,15.18
2022-12-23T20:19:46.290Z,14.35
2022-12-23T20:22:49.648Z,14.93
2022-12-23T20:25:52.279Z,15.75
2022-12-23T20:28:56.656Z,16.23
2022-12-23T20:31:59.210Z,17.02
2022-12-23T20:35:02.461Z,17.48
2022-12-23T20:38:05.405Z,13.52
2022-12-23T20:41:13.080Z,16.10
2022-12-23T20:47:39.783Z,16.77
2022-12-23T20:50:50.770Z,16.08
2022-12-23T20:53:56.065Z,15.13
2022-12-23T20:56:58.916Z,16.35
2022-12-23T21:00:05.038Z,13.93
2022-12-23T21:03:10.674Z,15.02
2022-12-23T21:06:14.032Z,16.50
2022-12-23T21:09:16.996Z,14.20
2022-12-23T21:12:20.012Z,15.13
2022-12-23T21:15:25.167Z,15.32
2022-12-23T21:18:28.426Z,14.85
2022-12-23T21:21:31.963Z,14.87
2022-12-23T21:24:35.017Z,16.70
2022-12-23T21:27:37.568Z,14.98
2022-12-23T21:30:44.409Z,13.57
2022-12-23T21:33:49.054Z,14.77
2022-12-23T21:36:52.000Z,16.50
2022-12-23T21:39:54.581Z,14.77
2022-12-23T21:42:57.459Z,16.20
2022-12-23T21:46:07.419Z,14.60
2022-12-23T21:49:11.052Z,15.93
2022-12-23T21:52:14.143Z,14.95
2022-12-23T21:55:18.152Z,15.02
2022-12-23T21:58:20.772Z,13.45
2022-12-23T22:01:24.749Z,12.85
2022-12-23T22:04:27.746Z,14.25
2022-12-23T22:07:30.364Z,13.07
2022-12-23T22:10:39.326Z,12.93
2022-12-23T22:13:42.485Z,11.15
2022-12-23T22:16:45.594Z,12.68
2022-12-23T22:19:48.257Z,12.13
2022-12-23T22:22:51.216Z,12.80
2022-12-23T22:25:54.887Z,12.82
2022-12-23T22:29:00.331Z,14.30
2022-12-23T22:32:03.233Z,15.40
2022-12-23T22:35:06.432Z,15.52
2022-12-23T22:38:09.105Z,13.23
2022-12-23T22:41:12.163Z,14.00
2022-12-23T22:44:15.093Z,14.85
2022-12-23T22:47:18.104Z,14.80
2022-12-23T22:50:21.639Z,13.32
2022-12-23T22:53:29.455Z,14.48
2022-12-23T22:56:32.561Z,14.95
2022-12-23T22:59:35.437Z,13.62
2022-12-23T23:02:38.157Z,13.05
2022-12-23T23:05:41.240Z,15.82
2022-12-23T23:08:44.008Z,12.82
2022-12-23T23:11:47.107Z,13.27
2022-12-23T23:14:52.566Z,14.80
2022-12-23T23:17:56.185Z,13.07
2022-12-23T23:20:59.527Z,15.05
2022-12-23T23:24:02.488Z,13.90
2022-12-23T23:27:05.129Z,14.93
2022-12-23T23:30:09.138Z,13.95
2022-12-23T23:33:12.180Z,13.62
2022-12-23T23:36:15.173Z,13.90
2022-12-23T23:39:17.858Z,12.20
2022-12-23T23:42:20.700Z,13.43
2022-12-23T23:45:23.471Z,12.10
2022-12-23T23:48:26.436Z,12.75
2022-12-23T23:51:29.358Z,12.45
2022-12-23T23:54:32.317Z,11.50
2022-12-23T23:57:34.889Z,12.90
